Time;durP1;ratioP1;P1;durP2;ratioP2;P2;SDS_P1;SDS_P2;PMS_P1;PMS_P2;Temp;Humidity;BMP_temperature;BMP_pressure;BME280_temperature;BME280_humidity;BME280_pressure;Samples;Min_cycle;Max_cycle;Signal;HPM_P1;HPM_P2
2022/07/06 00:01:02;;;;;;;;;;;15.60;99.90;;;;;;5142518;27;19927;-83
2022/07/06 00:03:28;;;;;;;;;;;15.60;99.90;;;;;;5145400;27;19954;-81
2022/07/06 00:05:53;;;;;;;;;;;15.60;99.90;;;;;;5164320;27;19966;-82
2022/07/06 00:08:18;;;;;;;;;;;15.60;99.90;;;;;;5162893;27;19970;-82
2022/07/06 00:10:44;;;;;;;;;;;15.60;99.90;;;;;;5162757;27;19930;-82
2022/07/06 00:13:10;;;;;;;;;;;15.60;99.90;;;;;;5163755;27;19923;-82
2022/07/06 00:15:35;;;;;;;;;;;16.30;99.90;;;;;;5161958;27;19919;-82
2022/07/06 00:18:00;;;;;;;;;;;15.60;99.90;;;;;;5157656;27;20382;-82
2022/07/06 00:20:26;;;;;;;;;;;15.80;99.90;;;;;;5169164;27;19937;-83
2022/07/06 00:22:52;;;;;;;;;;;15.60;99.90;;;;;;5166702;27;19969;-81
2022/07/06 00:25:17;;;;;;;;;;;15.60;99.90;;;;;;5147062;27;19923;-82
2022/07/06 00:27:43;;;;;;;;;;;15.50;99.90;;;;;;5148934;27;19923;-82
2022/07/06 00:30:08;;;;;;;;;;;15.50;99.90;;;;;;5166910;27;19922;-82
2022/07/06 00:32:34;;;;;;;;;;;15.50;99.90;;;;;;5147432;27;19977;-82
2022/07/06 00:34:59;;;;;;;;;;;15.50;99.90;;;;;;5149609;27;20396;-81
2022/07/06 00:37:25;;;;;;;;;;;15.50;99.90;;;;;;5165521;27;19923;-81
2022/07/06 00:39:50;;;;;;;;;;;15.50;99.90;;;;;;5145251;27;19934;-83
2022/07/06 00:42:16;;;;;;;;;;;15.50;99.90;;;;;;5146946;27;19938;-82
2022/07/06 00:44:41;;;;;;;;;;;15.50;99.90;;;;;;5167934;27;19934;-82
2022/07/06 00:47:07;;;;;;;;;;;15.50;99.90;;;;;;5147477;27;19922;-82
2022/07/06 00:52:18;;;;;;;;;;;15.40;99.90;;;;;;5146961;27;19923;-83
2022/07/06 00:54:44;;;;;;;;;;;15.50;99.90;;;;;;5166333;27;20767;-82
2022/07/06 00:57:09;;;;;;;;;;;15.50;99.90;;;;;;5147608;27;19934;-83
2022/07/06 00:59:35;;;;;;;;;;;15.50;99.90;;;;;;5166713;27;19946;-82
2022/07/06 01:02:07;;;;;;;;;;;15.50;99.90;;;;;;5143693;27;20018;-83
2022/07/06 01:04:32;;;;;;;;;;;15.50;99.90;;;;;;5135651;27;19930;-83
2022/07/06 01:06:58;;;;;;;;;;;15.50;99.90;;;;;;5138972;27;19923;-82
2022/07/06 01:09:24;;;;;;;;;;;15.50;99.90;;;;;;5140589;27;20375;-83
2022/07/06 01:11:50;;;;;;;;;;;15.40;99.90;;;;;;5156225;27;19923;-81
2022/07/06 01:14:17;;;;;;;;;;;15.40;99.90;;;;;;5151273;27;19922;-82
2022/07/06 01:16:43;;;;;;;;;;;15.40;99.90;;;;;;5166662;27;20362;-81
2022/07/06 01:19:08;;;;;;;;;;;15.40;99.90;;;;;;5163402;27;19975;-83
2022/07/06 01:21:37;;;;;;;;;;;15.70;99.90;;;;;;5164763;27;20013;-82
2022/07/06 01:24:02;;;;;;;;;;;15.40;99.90;;;;;;5140162;27;19972;-82
2022/07/06 01:26:28;;;;;;;;;;;15.40;99.90;;;;;;5163492;27;20290;-82
2022/07/06 01:28:53;;;;;;;;;;;15.40;99.90;;;;;;5139134;27;20403;-81
2022/07/06 01:31:20;;;;;;;;;;;15.40;99.90;;;;;;5164544;27;19926;-81
2022/07/06 01:33:45;;;;;;;;;;;15.40;99.90;;;;;;5145601;27;20389;-81
2022/07/06 01:36:11;;;;;;;;;;;15.40;99.90;;;;;;5166844;27;19922;-80
2022/07/06 01:38:47;;;;;;;;;;;15.40;99.90;;;;;;5164830;27;19931;-80
2022/07/06 01:41:13;;;;;;;;;;;15.40;99.90;;;;;;5140989;27;19927;-81
2022/07/06 01:43:41;;;;;;;;;;;15.70;99.90;;;;;;5140096;27;19926;-82
2022/07/06 01:46:07;;;;;;;;;;;15.60;99.90;;;;;;5144864;27;19923;-80
2022/07/06 01:48:32;;;;;;;;;;;15.30;99.90;;;;;;5147839;27;19930;-81
2022/07/06 01:50:58;;;;;;;;;;;15.70;99.90;;;;;;5164283;27;19923;-82
2022/07/06 01:53:23;;;;;;;;;;;15.20;99.90;;;;;;5146091;27;19923;-81
2022/07/06 01:55:49;;;;;;;;;;;15.30;99.90;;;;;;5147812;27;19929;-82
2022/07/06 01:58:15;;;;;;;;;;;15.30;99.90;;;;;;5144743;27;19923;-82
2022/07/06 02:00:40;;;;;;;;;;;15.20;99.90;;;;;;5144625;27;19929;-82
2022/07/06 02:03:06;;;;;;;;;;;15.70;99.90;;;;;;5147546;27;19934;-82
2022/07/06 02:05:31;;;;;;;;;;;15.20;99.90;;;;;;5146161;27;20018;-81
2022/07/06 02:07:57;;;;;;;;;;;15.70;99.90;;;;;;5164247;27;19939;-82
2022/07/06 02:10:22;;;;;;;;;;;15.10;99.90;;;;;;5161556;27;19968;-82
2022/07/06 02:12:48;;;;;;;;;;;15.10;99.90;;;;;;5145864;27;20369;-81
2022/07/06 02:15:14;;;;;;;;;;;15.10;99.90;;;;;;5163796;27;19923;-81
2022/07/06 02:17:39;;;;;;;;;;;15.10;99.90;;;;;;5162890;27;19934;-82
2022/07/06 02:20:05;;;;;;;;;;;15.10;99.90;;;;;;5158549;27;20266;-82
2022/07/06 02:22:31;;;;;;;;;;;15.00;99.90;;;;;;5147868;27;19930;-82
2022/07/06 02:24:56;;;;;;;;;;;14.80;99.90;;;;;;5145038;27;19922;-82
2022/07/06 02:27:22;;;;;;;;;;;14.80;99.90;;;;;;5146529;27;19977;-82
2022/07/06 02:29:47;;;;;;;;;;;14.80;99.90;;;;;;5143114;27;19923;-82
2022/07/06 02:32:13;;;;;;;;;;;15.10;99.90;;;;;;5165031;27;20066;-82
2022/07/06 02:34:38;;;;;;;;;;;14.70;99.90;;;;;;5144455;27;19934;-82
2022/07/06 02:37:04;;;;;;;;;;;14.60;99.90;;;;;;5166207;27;19982;-82
2022/07/06 02:39:29;;;;;;;;;;;14.50;99.90;;;;;;5144093;27;20384;-82
2022/07/06 02:41:55;;;;;;;;;;;14.40;99.90;;;;;;5145364;27;19927;-82
2022/07/06 02:44:20;;;;;;;;;;;14.30;99.90;;;;;;5145433;27;19923;-82
2022/07/06 02:46:46;;;;;;;;;;;14.30;99.90;;;;;;5163179;27;19978;-81
2022/07/06 02:49:11;;;;;;;;;;;14.10;99.90;;;;;;5165024;27;19930;-81
2022/07/06 02:51:37;;;;;;;;;;;14.10;99.90;;;;;;5162878;27;20294;-81
2022/07/06 02:54:02;;;;;;;;;;;14.00;99.90;;;;;;5165548;27;19922;-81
2022/07/06 02:56:28;;;;;;;;;;;13.90;99.90;;;;;;5143718;27;19923;-81
2022/07/06 02:58:54;;;;;;;;;;;13.80;99.90;;;;;;5146111;27;20316;-81
2022/07/06 03:01:19;;;;;;;;;;;13.80;99.90;;;;;;5164466;27;19923;-80
2022/07/06 03:03:54;;;;;;;;;;;13.70;99.90;;;;;;5145218;27;19922;-80
2022/07/06 03:06:22;;;;;;;;;;;13.60;99.90;;;;;;5164240;27;19967;-80
2022/07/06 03:08:47;;;;;;;;;;;13.50;99.90;;;;;;5158846;27;20358;-81
2022/07/06 03:11:13;;;;;;;;;;;13.40;99.90;;;;;;5144818;27;19930;-81
2022/07/06 03:13:39;;;;;;;;;;;13.30;99.90;;;;;;5163932;27;19981;-81
2022/07/06 03:16:04;;;;;;;;;;;13.30;99.90;;;;;;5143726;27;19967;-81
2022/07/06 03:18:30;;;;;;;;;;;13.20;99.90;;;;;;5143879;27;19953;-81
2022/07/06 03:20:55;;;;;;;;;;;13.20;99.90;;;;;;5143053;27;19931;-81
2022/07/06 03:23:21;;;;;;;;;;;13.10;99.90;;;;;;5165306;27;19930;-81
2022/07/06 03:25:46;;;;;;;;;;;13.10;99.90;;;;;;5144587;27;20092;-81
2022/07/06 03:28:12;;;;;;;;;;;13.10;99.90;;;;;;5161961;27;19946;-81
2022/07/06 03:30:37;;;;;;;;;;;13.00;99.90;;;;;;5157670;27;19923;-81
2022/07/06 03:33:03;;;;;;;;;;;13.00;99.90;;;;;;5162315;27;20017;-81
2022/07/06 03:35:28;;;;;;;;;;;13.20;99.90;;;;;;5164958;27;19922;-81
2022/07/06 03:37:54;;;;;;;;;;;13.00;99.90;;;;;;5161056;27;19977;-81
2022/07/06 03:40:19;;;;;;;;;;;12.90;99.90;;;;;;5143770;27;20340;-80
2022/07/06 03:42:45;;;;;;;;;;;12.90;99.90;;;;;;5145910;27;20065;-80
2022/07/06 03:45:11;;;;;;;;;;;12.90;99.90;;;;;;5163494;27;20398;-80
2022/07/06 03:47:36;;;;;;;;;;;12.90;99.90;;;;;;5163381;27;19934;-81
2022/07/06 03:50:02;;;;;;;;;;;12.80;99.90;;;;;;5144838;27;20617;-80
2022/07/06 03:52:27;;;;;;;;;;;12.80;99.90;;;;;;5143860;27;19923;-80
2022/07/06 03:54:53;;;;;;;;;;;12.90;99.90;;;;;;5148795;27;19968;-80
2022/07/06 03:57:18;;;;;;;;;;;12.90;99.90;;;;;;5169270;27;20005;-80
2022/07/06 03:59:44;;;;;;;;;;;12.90;99.90;;;;;;5147375;27;20021;-80
2022/07/06 04:02:09;;;;;;;;;;;12.90;99.90;;;;;;5148037;27;19927;-80
2022/07/06 04:04:35;;;;;;;;;;;13.00;99.90;;;;;;5148457;27;19923;-80
2022/07/06 04:07:00;;;;;;;;;;;13.00;99.90;;;;;;5166848;27;19923;-80
2022/07/06 04:09:26;;;;;;;;;;;13.00;99.90;;;;;;5168420;27;19930;-80
2022/07/06 04:11:51;;;;;;;;;;;13.20;99.90;;;;;;5146088;27;20369;-80
2022/07/06 04:14:17;;;;;;;;;;;13.30;99.90;;;;;;5169102;27;19922;-81
2022/07/06 04:16:43;;;;;;;;;;;13.50;99.90;;;;;;5163863;27;20294;-80
2022/07/06 04:19:08;;;;;;;;;;;13.70;99.90;;;;;;5147368;27;19930;-80
2022/07/06 04:21:34;;;;;;;;;;;13.90;99.90;;;;;;5148649;27;19930;-80
2022/07/06 04:24:00;;;;;;;;;;;13.60;99.90;;;;;;5166701;27;19929;-80
2022/07/06 04:26:25;;;;;;;;;;;13.70;99.90;;;;;;5165829;27;20011;-80
2022/07/06 04:28:51;;;;;;;;;;;13.70;99.90;;;;;;5168137;27;20373;-80
2022/07/06 04:31:16;;;;;;;;;;;13.80;99.90;;;;;;5146178;27;19931;-80
2022/07/06 04:33:42;;;;;;;;;;;13.90;99.90;;;;;;5168787;27;19977;-80
2022/07/06 04:36:08;;;;;;;;;;;13.90;99.90;;;;;;5147267;27;19923;-80
2022/07/06 04:38:34;;;;;;;;;;;14.00;99.90;;;;;;5144649;27;19923;-80
2022/07/06 04:40:59;;;;;;;;;;;14.10;99.90;;;;;;5147928;27;20259;-80
2022/07/06 04:43:25;;;;;;;;;;;14.10;99.90;;;;;;5147775;27;19923;-80
2022/07/06 04:45:50;;;;;;;;;;;14.20;99.90;;;;;;5144889;27;19927;-78
2022/07/06 04:48:16;;;;;;;;;;;14.20;99.90;;;;;;5168415;27;19927;-78
2022/07/06 04:50:41;;;;;;;;;;;14.30;99.90;;;;;;5146797;27;19976;-78
2022/07/06 04:53:07;;;;;;;;;;;14.40;99.90;;;;;;5148928;27;19922;-79
2022/07/06 04:55:32;;;;;;;;;;;14.60;99.90;;;;;;5144651;27;19931;-79
2022/07/06 04:57:58;;;;;;;;;;;14.70;99.90;;;;;;5147558;27;19923;-79
2022/07/06 05:00:23;;;;;;;;;;;14.80;99.90;;;;;;5147115;27;20400;-79
2022/07/06 05:02:49;;;;;;;;;;;15.00;99.90;;;;;;5167329;27;19923;-80
2022/07/06 05:05:14;;;;;;;;;;;15.20;99.90;;;;;;5161891;27;19931;-82
2022/07/06 05:07:40;;;;;;;;;;;15.30;99.90;;;;;;5150844;27;19930;-84
2022/07/06 05:10:06;;;;;;;;;;;15.60;99.90;;;;;;5164420;27;19927;-85
2022/07/06 05:12:32;;;;;;;;;;;15.30;99.90;;;;;;5167889;27;20062;-84
2022/07/06 05:15:00;;;;;;;;;;;15.40;99.90;;;;;;5146359;27;20002;-82
2022/07/06 05:17:26;;;;;;;;;;;15.50;99.90;;;;;;5148673;27;20262;-78
2022/07/06 05:19:52;;;;;;;;;;;15.80;99.90;;;;;;5165192;27;19930;-85
2022/07/06 05:22:18;;;;;;;;;;;15.50;99.90;;;;;;5165117;27;20025;-79
2022/07/06 05:24:44;;;;;;;;;;;15.60;99.90;;;;;;5165033;27;20404;-75
2022/07/06 05:27:10;;;;;;;;;;;16.00;99.90;;;;;;5163597;27;20085;-77
2022/07/06 05:29:36;;;;;;;;;;;15.70;99.90;;;;;;5142044;27;19923;-74
2022/07/06 05:32:01;;;;;;;;;;;15.70;99.90;;;;;;5167248;27;19922;-74
2022/07/06 05:34:27;;;;;;;;;;;15.70;99.90;;;;;;5145771;27;19964;-78
2022/07/06 05:36:53;;;;;;;;;;;15.70;99.90;;;;;;5166196;27;19923;-76
2022/07/06 05:39:20;;;;;;;;;;;15.90;99.90;;;;;;5165200;27;19923;-75
2022/07/06 05:41:46;;;;;;;;;;;15.80;99.90;;;;;;5138907;27;19957;-75
2022/07/06 05:44:12;;;;;;;;;;;15.80;99.90;;;;;;5163307;27;19974;-79
2022/07/06 05:46:37;;;;;;;;;;;15.90;99.90;;;;;;5144795;27;19968;-77
2022/07/06 05:51:46;;;;;;;;;;;15.80;99.90;;;;;;5163499;27;20452;-77
2022/07/06 05:54:12;;;;;;;;;;;15.80;99.90;;;;;;5165441;27;19948;-77
2022/07/06 05:56:37;;;;;;;;;;;15.80;99.90;;;;;;5145266;27;20018;-76
2022/07/06 05:59:03;;;;;;;;;;;15.80;99.90;;;;;;5143540;27;19923;-76
2022/07/06 06:01:28;;;;;;;;;;;15.80;99.90;;;;;;5145411;27;19923;-77
2022/07/06 06:03:54;;;;;;;;;;;16.10;99.90;;;;;;5165877;27;20421;-75
2022/07/06 06:06:19;;;;;;;;;;;15.90;99.90;;;;;;5145462;27;19922;-80
2022/07/06 06:08:45;;;;;;;;;;;15.80;99.90;;;;;;5165516;27;20294;-77
2022/07/06 06:11:10;;;;;;;;;;;15.80;99.90;;;;;;5164866;27;20381;-83
2022/07/06 06:13:36;;;;;;;;;;;15.80;99.90;;;;;;5163537;27;19927;-81
2022/07/06 06:16:01;;;;;;;;;;;15.90;99.90;;;;;;5162566;27;19983;-84
2022/07/06 06:18:27;;;;;;;;;;;15.80;99.90;;;;;;5158163;27;19975;-84
2022/07/06 06:20:53;;;;;;;;;;;15.90;99.90;;;;;;5154354;27;19923;-82
2022/07/06 06:23:18;;;;;;;;;;;15.90;99.90;;;;;;5146453;27;20297;-79
2022/07/06 06:25:44;;;;;;;;;;;15.80;99.90;;;;;;5146066;27;20013;-76
2022/07/06 06:28:10;;;;;;;;;;;16.00;99.90;;;;;;5162956;27;20365;-78
2022/07/06 06:30:36;;;;;;;;;;;16.00;99.90;;;;;;5159112;27;19960;-78
2022/07/06 06:33:04;;;;;;;;;;;16.00;99.90;;;;;;5164974;27;20397;-78
2022/07/06 06:35:30;;;;;;;;;;;16.00;99.90;;;;;;5163611;27;19923;-78
2022/07/06 06:37:55;;;;;;;;;;;16.10;99.90;;;;;;5160766;27;19936;-77
2022/07/06 06:40:21;;;;;;;;;;;16.10;99.90;;;;;;5147660;27;19966;-77
2022/07/06 06:42:47;;;;;;;;;;;16.20;99.90;;;;;;5163750;27;19941;-78
2022/07/06 06:45:12;;;;;;;;;;;16.30;99.90;;;;;;5144697;27;19929;-78
2022/07/06 06:47:38;;;;;;;;;;;16.40;99.90;;;;;;5163865;27;19923;-79
2022/07/06 06:50:03;;;;;;;;;;;16.50;99.90;;;;;;5163326;27;19988;-79
2022/07/06 06:52:29;;;;;;;;;;;16.60;99.90;;;;;;5146263;27;20472;-79
2022/07/06 06:54:54;;;;;;;;;;;16.80;99.90;;;;;;5158004;27;19959;-76
2022/07/06 06:57:20;;;;;;;;;;;17.00;99.90;;;;;;5166452;27;19923;-76
2022/07/06 06:59:46;;;;;;;;;;;16.80;99.90;;;;;;5162617;27;20387;-76
2022/07/06 07:02:11;;;;;;;;;;;17.00;99.90;;;;;;5164519;27;20374;-77
2022/07/06 07:04:37;;;;;;;;;;;17.10;99.90;;;;;;5143242;27;19997;-76
2022/07/06 07:07:02;;;;;;;;;;;17.30;99.90;;;;;;5163068;27;19923;-77
2022/07/06 07:09:28;;;;;;;;;;;17.40;99.90;;;;;;5146295;27;20058;-76
2022/07/06 07:11:54;;;;;;;;;;;17.60;99.90;;;;;;5144021;27;19927;-79
2022/07/06 07:14:20;;;;;;;;;;;17.80;99.90;;;;;;5164181;27;19930;-79
2022/07/06 07:16:45;;;;;;;;;;;17.60;99.90;;;;;;5157996;27;19923;-79
2022/07/06 07:19:11;;;;;;;;;;;17.50;99.90;;;;;;5146480;27;19929;-79
2022/07/06 07:21:36;;;;;;;;;;;17.50;99.90;;;;;;5162250;27;19931;-79
2022/07/06 07:24:02;;;;;;;;;;;17.90;99.90;;;;;;5145540;27;19927;-77
2022/07/06 07:26:28;;;;;;;;;;;17.80;99.90;;;;;;5161582;27;20450;-79
2022/07/06 07:28:53;;;;;;;;;;;18.60;99.90;;;;;;5148247;27;20293;-79
2022/07/06 07:31:19;;;;;;;;;;;19.40;99.00;;;;;;5166727;27;20015;-80
2022/07/06 07:33:44;;;;;;;;;;;20.20;98.10;;;;;;5151410;27;19966;-79
2022/07/06 07:36:10;;;;;;;;;;;20.40;96.40;;;;;;5147689;27;19927;-80
2022/07/06 07:38:35;;;;;;;;;;;20.50;96.10;;;;;;5150586;27;19923;-80
2022/07/06 07:41:01;;;;;;;;;;;21.10;96.20;;;;;;5147750;27;20309;-78
2022/07/06 07:43:26;;;;;;;;;;;21.30;94.80;;;;;;5167756;27;19926;-79
2022/07/06 07:45:52;;;;;;;;;;;21.20;95.70;;;;;;5168326;27;20005;-78
2022/07/06 07:48:17;;;;;;;;;;;21.20;96.10;;;;;;5147517;27;19924;-79
2022/07/06 07:50:43;;;;;;;;;;;21.60;95.40;;;;;;5147189;27;19923;-82
2022/07/06 07:53:08;;;;;;;;;;;21.80;94.40;;;;;;5142951;27;20325;-84
2022/07/06 07:55:34;;;;;;;;;;;22.40;94.70;;;;;;5150277;27;20001;-84
2022/07/06 07:58:00;;;;;;;;;;;23.10;94.30;;;;;;5166593;27;20453;-84
2022/07/06 08:00:26;;;;;;;;;;;23.80;92.90;;;;;;5149110;27;19927;-83
2022/07/06 08:02:52;;;;;;;;;;;24.10;92.30;;;;;;5145828;27;19923;-84
2022/07/06 08:05:18;;;;;;;;;;;24.30;92.30;;;;;;5168251;27;20433;-83
2022/07/06 08:07:44;;;;;;;;;;;24.20;91.90;;;;;;5147751;27;19923;-84
2022/07/06 08:10:10;;;;;;;;;;;23.80;92.30;;;;;;5145939;27;20411;-84
2022/07/06 08:12:35;;;;;;;;;;;23.00;92.50;;;;;;5147392;27;19966;-83
2022/07/06 08:15:01;;;;;;;;;;;22.00;93.10;;;;;;5168614;27;19966;-84
2022/07/06 08:17:27;;;;;;;;;;;21.60;94.10;;;;;;5166336;27;19966;-83
2022/07/06 08:19:52;;;;;;;;;;;21.60;94.60;;;;;;5148150;27;19930;-83
2022/07/06 08:22:18;;;;;;;;;;;21.90;95.00;;;;;;5168167;27;19981;-84
2022/07/06 08:24:43;;;;;;;;;;;21.80;94.10;;;;;;5164828;27;19924;-85
2022/07/06 08:27:09;;;;;;;;;;;21.60;94.20;;;;;;5147029;27;20373;-84
2022/07/06 08:29:34;;;;;;;;;;;21.80;94.20;;;;;;5169625;27;20021;-84
2022/07/06 08:32:00;;;;;;;;;;;22.00;93.80;;;;;;5146446;27;19923;-84
2022/07/06 08:34:25;;;;;;;;;;;22.50;94.00;;;;;;5149530;27;19933;-86
2022/07/06 08:36:51;;;;;;;;;;;22.40;93.40;;;;;;5147670;27;19967;-83
2022/07/06 08:39:17;;;;;;;;;;;22.60;93.90;;;;;;5166814;27;20038;-84
2022/07/06 08:41:47;;;;;;;;;;;23.00;93.70;;;;;;5167424;27;19929;-83
2022/07/06 08:44:13;;;;;;;;;;;23.60;92.60;;;;;;5146548;27;19981;-84
2022/07/06 08:46:39;;;;;;;;;;;24.40;92.70;;;;;;5167640;27;19923;-82
2022/07/06 08:49:06;;;;;;;;;;;24.10;91.00;;;;;;5146070;27;20294;-84
2022/07/06 08:51:31;;;;;;;;;;;24.00;91.60;;;;;;5149835;27;20004;-84
2022/07/06 08:53:57;;;;;;;;;;;24.50;91.20;;;;;;5165016;27;20358;-84
2022/07/06 08:56:23;;;;;;;;;;;24.70;91.10;;;;;;5167423;27;19923;-84
2022/07/06 08:58:53;;;;;;;;;;;25.30;89.60;;;;;;5165991;27;19930;-85
2022/07/06 09:01:19;;;;;;;;;;;25.40;90.10;;;;;;5148532;27;19923;-84
2022/07/06 09:03:45;;;;;;;;;;;25.50;91.00;;;;;;5144040;27;20008;-84
2022/07/06 09:06:13;;;;;;;;;;;25.50;90.30;;;;;;5165540;27;19955;-84
2022/07/06 09:08:39;;;;;;;;;;;25.10;91.00;;;;;;5148745;27;20289;-84
2022/07/06 09:11:07;;;;;;;;;;;24.40;90.70;;;;;;5161776;27;20022;-88
2022/07/06 09:13:33;;;;;;;;;;;24.00;91.60;;;;;;5145860;27;20392;-87
2022/07/06 09:16:11;;;;;;;;;;;23.50;91.70;;;;;;5149868;27;19923;-86
2022/07/06 09:18:38;;;;;;;;;;;23.20;92.00;;;;;;5163158;27;19933;-87
2022/07/06 09:21:04;;;;;;;;;;;23.90;91.70;;;;;;5149049;27;19934;-88
2022/07/06 09:23:30;;;;;;;;;;;24.10;90.90;;;;;;5164831;27;20010;-87
2022/07/06 09:25:55;;;;;;;;;;;24.30;90.90;;;;;;5168507;27;20014;-87
2022/07/06 09:28:21;;;;;;;;;;;24.20;91.50;;;;;;5151148;27;20025;-90
2022/07/06 09:30:46;;;;;;;;;;;24.50;90.40;;;;;;5163293;27;19931;-91
2022/07/06 09:33:17;;;;;;;;;;;24.80;90.70;;;;;;5143042;27;19923;-89
2022/07/06 09:35:42;;;;;;;;;;;25.00;90.50;;;;;;5165036;27;19919;-91
2022/07/06 09:38:09;;;;;;;;;;;25.20;90.50;;;;;;5166584;27;20392;-90
2022/07/06 09:40:45;;;;;;;;;;;24.90;89.80;;;;;;5135778;27;19923;-89
2022/07/06 09:43:14;;;;;;;;;;;25.00;90.30;;;;;;5168863;27;19927;-86
2022/07/06 09:45:42;;;;;;;;;;;25.30;90.10;;;;;;5160854;27;19950;-89
2022/07/06 09:48:11;;;;;;;;;;;25.40;90.20;;;;;;5141316;27;20005;-89
2022/07/06 09:50:40;;;;;;;;;;;25.30;89.80;;;;;;5154157;27;19936;-87
2022/07/06 09:53:06;;;;;;;;;;;25.20;90.00;;;;;;5148821;27;19923;-84
2022/07/06 09:55:31;;;;;;;;;;;25.20;90.50;;;;;;5162067;27;19930;-84
2022/07/06 09:57:57;;;;;;;;;;;25.30;90.10;;;;;;5145714;27;19930;-87
2022/07/06 10:00:22;;;;;;;;;;;25.30;90.20;;;;;;5172577;27;19923;-80
2022/07/06 10:02:48;;;;;;;;;;;25.60;90.50;;;;;;5140505;27;20301;-83
2022/07/06 10:05:15;;;;;;;;;;;25.90;90.00;;;;;;5166317;27;20370;-82
2022/07/06 10:07:41;;;;;;;;;;;26.10;89.70;;;;;;5146056;27;19931;-84
2022/07/06 10:10:07;;;;;;;;;;;26.30;89.60;;;;;;5160907;27;20329;-83
2022/07/06 10:12:33;;;;;;;;;;;26.50;89.80;;;;;;5160656;27;19975;-82
2022/07/06 10:14:59;;;;;;;;;;;26.50;89.90;;;;;;5162791;27;20014;-83
2022/07/06 10:17:25;;;;;;;;;;;26.40;88.80;;;;;;5165121;27;19923;-84
2022/07/06 10:19:51;;;;;;;;;;;26.10;88.60;;;;;;5142634;27;19923;-81
2022/07/06 10:22:17;;;;;;;;;;;26.40;87.60;;;;;;5148740;27;20258;-82
2022/07/06 10:24:43;;;;;;;;;;;26.70;89.30;;;;;;5143217;27;19923;-82
2022/07/06 10:27:10;;;;;;;;;;;27.00;87.30;;;;;;5166213;27;19931;-83
2022/07/06 10:29:36;;;;;;;;;;;26.80;87.00;;;;;;5162968;27;20338;-80
2022/07/06 10:32:02;;;;;;;;;;;25.30;86.80;;;;;;5144265;27;20381;-83
2022/07/06 10:34:27;;;;;;;;;;;26.60;87.80;;;;;;5146169;27;19968;-87
2022/07/06 10:36:54;;;;;;;;;;;26.40;87.40;;;;;;5146826;27;20383;-81
2022/07/06 10:42:41;;;;;;;;;;;26.20;88.40;;;;;;5160431;27;19923;-84
2022/07/06 10:45:07;;;;;;;;;;;25.40;88.60;;;;;;5146718;27;20565;-85
2022/07/06 10:47:34;;;;;;;;;;;25.30;89.80;;;;;;5163455;27;19922;-83
2022/07/06 10:50:00;;;;;;;;;;;25.30;88.40;;;;;;5146134;27;19923;-85
2022/07/06 10:52:44;;;;;;;;;;;25.70;89.30;;;;;;5164015;27;19938;-84
2022/07/06 10:55:28;;;;;;;;;;;26.10;88.00;;;;;;5157928;27;19927;-84
2022/07/06 10:57:53;;;;;;;;;;;26.20;86.80;;;;;;5165538;27;19926;-81
2022/07/06 11:00:19;;;;;;;;;;;25.90;86.70;;;;;;5143887;27;19923;-81
2022/07/06 11:02:44;;;;;;;;;;;26.20;87.30;;;;;;5147424;27;19923;-82
2022/07/06 11:05:11;;;;;;;;;;;26.20;88.20;;;;;;5141105;27;19923;-85
2022/07/06 11:07:48;;;;;;;;;;;26.20;88.10;;;;;;5158829;27;20386;-82
2022/07/06 11:10:13;;;;;;;;;;;26.10;88.70;;;;;;5158213;27;19923;-84
2022/07/06 11:12:44;;;;;;;;;;;25.90;88.20;;;;;;5144940;27;20038;-82
2022/07/06 11:15:09;;;;;;;;;;;26.10;89.40;;;;;;5157755;27;20290;-81
2022/07/06 11:17:35;;;;;;;;;;;26.20;87.20;;;;;;5141104;27;19929;-69
2022/07/06 11:20:18;;;;;;;;;;;26.00;87.50;;;;;;5141504;27;19927;-83
2022/07/06 11:22:44;;;;;;;;;;;26.00;87.00;;;;;;5161063;27;19973;-81
2022/07/06 11:25:10;;;;;;;;;;;26.20;87.50;;;;;;5146816;27;19974;-81
2022/07/06 11:27:35;;;;;;;;;;;26.20;86.40;;;;;;5142901;27;19931;-76
2022/07/06 11:30:01;;;;;;;;;;;26.30;88.30;;;;;;5147099;27;19980;-80
2022/07/06 11:32:27;;;;;;;;;;;26.40;86.10;;;;;;5164031;27;19926;-80
2022/07/06 11:34:52;;;;;;;;;;;26.40;85.40;;;;;;5141107;27;20619;-80
2022/07/06 11:37:18;;;;;;;;;;;26.30;86.00;;;;;;5166251;27;19930;-79
2022/07/06 11:39:45;;;;;;;;;;;26.60;87.50;;;;;;5156249;27;20391;-79
2022/07/06 11:42:11;;;;;;;;;;;26.50;87.30;;;;;;5139877;27;20389;-78
2022/07/06 11:44:37;;;;;;;;;;;26.60;86.70;;;;;;5148777;27;19922;-80
2022/07/06 11:47:03;;;;;;;;;;;26.10;86.20;;;;;;5147928;27;20463;-81
2022/07/06 11:49:29;;;;;;;;;;;26.30;87.50;;;;;;5159862;27;20286;-81
2022/07/06 11:51:55;;;;;;;;;;;25.00;87.30;;;;;;5143952;27;19944;-79
2022/07/06 11:54:21;;;;;;;;;;;24.90;87.70;;;;;;5159816;27;19926;-77
2022/07/06 11:56:46;;;;;;;;;;;24.30;90.00;;;;;;5145498;27;19923;-75
2022/07/06 11:59:12;;;;;;;;;;;24.20;90.20;;;;;;5144534;27;19923;-77
2022/07/06 12:01:41;;;;;;;;;;;24.20;89.80;;;;;;5147864;27;19988;-77
2022/07/06 12:04:07;;;;;;;;;;;23.70;90.40;;;;;;5165004;27;20378;-76
2022/07/06 12:06:33;;;;;;;;;;;23.40;90.50;;;;;;5144244;27;19923;-85
2022/07/06 12:08:59;;;;;;;;;;;23.20;90.60;;;;;;5134698;27;19922;-80
2022/07/06 12:11:25;;;;;;;;;;;23.30;90.80;;;;;;5140583;27;20339;-79
2022/07/06 12:13:51;;;;;;;;;;;23.00;89.80;;;;;;5160497;27;19930;-79
2022/07/06 12:16:18;;;;;;;;;;;22.80;90.40;;;;;;5165981;27;19922;-76
2022/07/06 12:18:44;;;;;;;;;;;22.70;90.90;;;;;;5147415;27;19923;-78
2022/07/06 12:21:11;;;;;;;;;;;22.70;91.30;;;;;;5153240;27;20325;-79
2022/07/06 12:23:43;;;;;;;;;;;22.50;91.10;;;;;;5156679;27;19923;-80
2022/07/06 12:26:09;;;;;;;;;;;22.30;90.60;;;;;;5156531;27;20332;-78
2022/07/06 12:28:35;;;;;;;;;;;22.00;91.00;;;;;;5141486;27;20298;-81
2022/07/06 12:31:01;;;;;;;;;;;21.90;91.20;;;;;;5137271;27;19923;-82
2022/07/06 12:33:27;;;;;;;;;;;21.80;92.00;;;;;;5147983;27;20029;-81
2022/07/06 12:35:53;;;;;;;;;;;22.20;91.90;;;;;;5157654;27;19965;-78
2022/07/06 12:38:23;;;;;;;;;;;22.30;92.10;;;;;;5156431;27;19923;-77
2022/07/06 12:40:48;;;;;;;;;;;22.40;91.80;;;;;;5157807;27;19919;-80
2022/07/06 12:43:14;;;;;;;;;;;22.50;91.50;;;;;;5137994;27;19976;-82
2022/07/06 12:45:39;;;;;;;;;;;22.60;92.20;;;;;;5136687;27;19972;-74
2022/07/06 12:48:05;;;;;;;;;;;22.10;91.80;;;;;;5154848;27;19923;-79
2022/07/06 12:50:34;;;;;;;;;;;21.90;92.00;;;;;;5138388;27;19927;-85
2022/07/06 12:53:00;;;;;;;;;;;21.80;91.70;;;;;;5141387;27;19923;-79
2022/07/06 12:55:27;;;;;;;;;;;21.50;92.30;;;;;;5142680;27;20270;-76
2022/07/06 12:57:52;;;;;;;;;;;21.40;92.60;;;;;;5153747;27;19928;-74
2022/07/06 13:00:18;;;;;;;;;;;21.10;93.10;;;;;;5133919;27;19930;-76
2022/07/06 13:02:44;;;;;;;;;;;21.10;93.20;;;;;;5153312;27;20312;-74
2022/07/06 13:05:14;;;;;;;;;;;20.90;93.60;;;;;;5154143;27;19934;-86
2022/07/06 13:07:44;;;;;;;;;;;20.70;93.50;;;;;;5137842;27;20283;-82
2022/07/06 13:10:10;;;;;;;;;;;20.50;93.80;;;;;;5158869;27;20763;-88
2022/07/06 13:12:36;;;;;;;;;;;20.40;94.30;;;;;;5146481;27;19923;-89
2022/07/06 13:15:02;;;;;;;;;;;20.10;94.40;;;;;;5155809;27;20397;-83
2022/07/06 13:17:28;;;;;;;;;;;20.20;94.60;;;;;;5135833;27;19942;-79
2022/07/06 13:19:53;;;;;;;;;;;20.10;94.70;;;;;;5160316;27;20392;-78
2022/07/06 13:22:19;;;;;;;;;;;20.20;94.70;;;;;;5139537;27;19923;-77
2022/07/06 13:24:45;;;;;;;;;;;20.10;94.40;;;;;;5139679;27;19955;-84
2022/07/06 13:27:10;;;;;;;;;;;19.80;94.90;;;;;;5139017;27;19923;-81
2022/07/06 13:29:36;;;;;;;;;;;20.20;94.80;;;;;;5139743;27;20344;-79
2022/07/06 13:32:03;;;;;;;;;;;19.90;94.80;;;;;;5161369;27;19923;-82
2022/07/06 13:34:28;;;;;;;;;;;19.80;95.20;;;;;;5137411;27;19933;-84
2022/07/06 13:36:54;;;;;;;;;;;19.70;95.70;;;;;;5141492;27;19923;-79
2022/07/06 13:39:19;;;;;;;;;;;19.40;96.40;;;;;;5161508;27;19930;-77
2022/07/06 13:41:45;;;;;;;;;;;19.30;97.60;;;;;;5165573;27;19946;-78
2022/07/06 13:44:11;;;;;;;;;;;19.20;97.60;;;;;;5158207;27;20453;-78
2022/07/06 13:46:37;;;;;;;;;;;19.10;97.90;;;;;;5154711;27;19923;-81
2022/07/06 13:49:04;;;;;;;;;;;19.00;98.00;;;;;;5137393;27;19934;-78
2022/07/06 13:51:31;;;;;;;;;;;19.30;97.80;;;;;;5156550;27;19923;-73
2022/07/06 13:53:56;;;;;;;;;;;19.40;97.90;;;;;;5136049;27;19919;-83
2022/07/06 13:56:22;;;;;;;;;;;19.40;97.40;;;;;;5143598;27;19946;-86
2022/07/06 13:58:47;;;;;;;;;;;19.60;97.70;;;;;;5157892;27;19949;-71
2022/07/06 14:01:13;;;;;;;;;;;19.40;97.90;;;;;;5155931;27;19956;-73
2022/07/06 14:03:39;;;;;;;;;;;19.40;98.00;;;;;;5138631;27;19950;-74
2022/07/06 14:06:07;;;;;;;;;;;19.60;99.90;;;;;;5137874;27;19930;-74
2022/07/06 14:08:33;;;;;;;;;;;19.00;99.90;;;;;;5138547;27;20063;-72
2022/07/06 14:10:59;;;;;;;;;;;18.70;99.90;;;;;;5133178;27;20013;-75
2022/07/06 14:13:24;;;;;;;;;;;18.70;99.90;;;;;;5156635;27;19930;-73
2022/07/06 14:15:50;;;;;;;;;;;18.60;99.90;;;;;;5152163;27;19923;-77
2022/07/06 14:18:17;;;;;;;;;;;18.70;99.90;;;;;;5152592;27;19931;-79